sensor_id;sensor_type;location;lat;lon;timestamp;P1;durP1;ratioP1;P2;durP2;ratioP2
14268;SDS011;7218;51.480;7.006;2022-11-15T00:00:24;10.00;;;5.85;;
14268;SDS011;7218;51.480;7.006;2022-11-15T00:02:51;12.55;;;6.00;;
14268;SDS011;7218;51.480;7.006;2022-11-15T00:05:18;8.02;;;5.90;;
14268;SDS011;7218;51.480;7.006;2022-11-15T00:07:46;6.82;;;5.55;;
14268;SDS011;7218;51.480;7.006;2022-11-15T00:10:13;6.68;;;5.38;;
14268;SDS011;7218;51.480;7.006;2022-11-15T00:12:41;10.07;;;5.70;;
14268;SDS011;7218;51.480;7.006;2022-11-15T00:15:08;7.55;;;5.93;;
14268;SDS011;7218;51.480;7.006;2022-11-15T00:17:35;12.32;;;6.32;;
14268;SDS011;7218;51.480;7.006;2022-11-15T00:20:01;7.95;;;6.40;;
14268;SDS011;7218;51.480;7.006;2022-11-15T00:22:30;7.75;;;6.15;;
14268;SDS011;7218;51.480;7.006;2022-11-15T00:24:59;10.82;;;7.32;;
14268;SDS011;7218;51.480;7.006;2022-11-15T00:27:26;7.78;;;5.70;;
14268;SDS011;7218;51.480;7.006;2022-11-15T00:29:53;9.23;;;7.13;;
14268;SDS011;7218;51.480;7.006;2022-11-15T00:32:20;9.63;;;6.72;;
14268;SDS011;7218;51.480;7.006;2022-11-15T00:34:46;9.45;;;6.45;;
14268;SDS011;7218;51.480;7.006;2022-11-15T00:37:13;8.20;;;6.13;;
14268;SDS011;7218;51.480;7.006;2022-11-15T00:39:39;9.93;;;6.78;;
14268;SDS011;7218;51.480;7.006;2022-11-15T00:42:07;10.20;;;6.43;;
14268;SDS011;7218;51.480;7.006;2022-11-15T00:44:34;7.03;;;5.97;;
14268;SDS011;7218;51.480;7.006;2022-11-15T00:47:00;9.27;;;6.55;;
14268;SDS011;7218;51.480;7.006;2022-11-15T00:49:27;9.13;;;6.72;;
14268;SDS011;7218;51.480;7.006;2022-11-15T00:51:53;10.02;;;6.18;;
14268;SDS011;7218;51.480;7.006;2022-11-15T00:54:20;9.15;;;6.15;;
14268;SDS011;7218;51.480;7.006;2022-11-15T00:56:46;8.70;;;6.00;;
14268;SDS011;7218;51.480;7.006;2022-11-15T00:59:14;8.50;;;6.22;;
14268;SDS011;7218;51.480;7.006;2022-11-15T01:01:41;10.88;;;6.35;;
14268;SDS011;7218;51.480;7.006;2022-11-15T01:04:07;9.45;;;6.43;;
14268;SDS011;7218;51.480;7.006;2022-11-15T01:06:34;8.43;;;5.70;;
14268;SDS011;7218;51.480;7.006;2022-11-15T01:09:00;9.10;;;5.60;;
14268;SDS011;7218;51.480;7.006;2022-11-15T01:11:27;7.47;;;5.78;;
14268;SDS011;7218;51.480;7.006;2022-11-15T01:13:53;7.57;;;5.57;;
14268;SDS011;7218;51.480;7.006;2022-11-15T01:16:22;9.25;;;5.75;;
14268;SDS011;7218;51.480;7.006;2022-11-15T01:18:48;8.55;;;5.47;;
14268;SDS011;7218;51.480;7.006;2022-11-15T01:21:16;7.82;;;5.85;;
14268;SDS011;7218;51.480;7.006;2022-11-15T01:23:44;7.28;;;5.50;;
14268;SDS011;7218;51.480;7.006;2022-11-15T01:26:12;9.45;;;5.50;;
14268;SDS011;7218;51.480;7.006;2022-11-15T01:28:41;8.05;;;5.53;;
14268;SDS011;7218;51.480;7.006;2022-11-15T01:31:09;11.23;;;5.60;;
14268;SDS011;7218;51.480;7.006;2022-11-15T01:33:39;7.97;;;5.90;;
14268;SDS011;7218;51.480;7.006;2022-11-15T01:36:07;7.25;;;5.50;;
14268;SDS011;7218;51.480;7.006;2022-11-15T01:38:36;7.55;;;5.40;;
14268;SDS011;7218;51.480;7.006;2022-11-15T01:41:03;9.63;;;5.22;;
14268;SDS011;7218;51.480;7.006;2022-11-15T01:43:30;8.48;;;5.80;;
14268;SDS011;7218;51.480;7.006;2022-11-15T01:45:59;7.50;;;5.63;;
14268;SDS011;7218;51.480;7.006;2022-11-15T01:48:29;6.18;;;5.00;;
14268;SDS011;7218;51.480;7.006;2022-11-15T01:50:59;7.50;;;5.32;;
14268;SDS011;7218;51.480;7.006;2022-11-15T01:53:29;7.90;;;5.47;;
14268;SDS011;7218;51.480;7.006;2022-11-15T01:55:57;8.00;;;5.68;;
14268;SDS011;7218;51.480;7.006;2022-11-15T01:58:25;9.02;;;6.28;;
14268;SDS011;7218;51.480;7.006;2022-11-15T02:00:51;9.20;;;5.65;;
14268;SDS011;7218;51.480;7.006;2022-11-15T02:03:18;6.85;;;5.60;;
14268;SDS011;7218;51.480;7.006;2022-11-15T02:05:46;8.63;;;5.38;;
14268;SDS011;7218;51.480;7.006;2022-11-15T02:08:14;7.60;;;5.50;;
14268;SDS011;7218;51.480;7.006;2022-11-15T02:10:45;6.88;;;4.95;;
14268;SDS011;7218;51.480;7.006;2022-11-15T02:13:11;6.43;;;5.00;;
14268;SDS011;7218;51.480;7.006;2022-11-15T02:15:40;5.72;;;5.10;;
14268;SDS011;7218;51.480;7.006;2022-11-15T02:18:15;5.53;;;5.03;;
14268;SDS011;7218;51.480;7.006;2022-11-15T02:20:52;7.53;;;5.53;;
14268;SDS011;7218;51.480;7.006;2022-11-15T02:23:45;7.80;;;5.00;;
14268;SDS011;7218;51.480;7.006;2022-11-15T02:26:49;6.80;;;4.93;;
14268;SDS011;7218;51.480;7.006;2022-11-15T02:29:29;8.15;;;5.18;;
14268;SDS011;7218;51.480;7.006;2022-11-15T02:32:09;6.75;;;5.03;;
14268;SDS011;7218;51.480;7.006;2022-11-15T02:34:43;7.30;;;5.32;;
14268;SDS011;7218;51.480;7.006;2022-11-15T02:37:17;8.77;;;5.28;;
14268;SDS011;7218;51.480;7.006;2022-11-15T02:39:57;6.07;;;4.80;;
14268;SDS011;7218;51.480;7.006;2022-11-15T02:42:32;7.32;;;5.10;;
14268;SDS011;7218;51.480;7.006;2022-11-15T02:45:21;8.93;;;5.13;;
14268;SDS011;7218;51.480;7.006;2022-11-15T02:47:54;7.45;;;5.13;;
14268;SDS011;7218;51.480;7.006;2022-11-15T02:50:24;4.93;;;4.30;;
14268;SDS011;7218;51.480;7.006;2022-11-15T02:52:53;7.28;;;4.80;;
14268;SDS011;7218;51.480;7.006;2022-11-15T02:55:27;7.53;;;5.47;;
14268;SDS011;7218;51.480;7.006;2022-11-15T02:57:59;6.80;;;4.80;;
14268;SDS011;7218;51.480;7.006;2022-11-15T03:00:50;7.40;;;5.13;;
14268;SDS011;7218;51.480;7.006;2022-11-15T03:03:28;6.65;;;4.95;;
14268;SDS011;7218;51.480;7.006;2022-11-15T03:06:09;6.97;;;4.80;;
14268;SDS011;7218;51.480;7.006;2022-11-15T03:08:47;7.57;;;4.95;;
14268;SDS011;7218;51.480;7.006;2022-11-15T03:11:25;5.60;;;4.95;;
14268;SDS011;7218;51.480;7.006;2022-11-15T03:13:53;6.57;;;4.78;;
14268;SDS011;7218;51.480;7.006;2022-11-15T03:16:26;7.22;;;4.97;;
14268;SDS011;7218;51.480;7.006;2022-11-15T03:18:59;5.38;;;4.70;;
14268;SDS011;7218;51.480;7.006;2022-11-15T03:21:31;12.35;;;5.65;;
14268;SDS011;7218;51.480;7.006;2022-11-15T03:24:01;8.13;;;5.28;;
14268;SDS011;7218;51.480;7.006;2022-11-15T03:26:32;6.63;;;4.78;;
14268;SDS011;7218;51.480;7.006;2022-11-15T03:29:03;6.25;;;5.13;;
14268;SDS011;7218;51.480;7.006;2022-11-15T03:31:33;7.15;;;5.22;;
14268;SDS011;7218;51.480;7.006;2022-11-15T03:34:16;7.65;;;5.07;;
14268;SDS011;7218;51.480;7.006;2022-11-15T03:36:48;6.32;;;5.30;;
14268;SDS011;7218;51.480;7.006;2022-11-15T03:39:17;7.55;;;4.88;;
14268;SDS011;7218;51.480;7.006;2022-11-15T03:41:46;5.88;;;4.70;;
14268;SDS011;7218;51.480;7.006;2022-11-15T03:44:20;5.72;;;4.57;;
14268;SDS011;7218;51.480;7.006;2022-11-15T03:46:58;7.35;;;4.78;;
14268;SDS011;7218;51.480;7.006;2022-11-15T03:49:34;6.53;;;4.75;;
14268;SDS011;7218;51.480;7.006;2022-11-15T03:52:07;5.35;;;4.55;;
14268;SDS011;7218;51.480;7.006;2022-11-15T03:54:36;4.90;;;4.38;;
14268;SDS011;7218;51.480;7.006;2022-11-15T03:57:13;6.82;;;4.63;;
14268;SDS011;7218;51.480;7.006;2022-11-15T03:59:39;5.53;;;4.55;;
14268;SDS011;7218;51.480;7.006;2022-11-15T04:02:06;5.60;;;4.40;;
14268;SDS011;7218;51.480;7.006;2022-11-15T04:04:34;7.22;;;4.60;;
14268;SDS011;7218;51.480;7.006;2022-11-15T04:07:01;4.55;;;4.03;;
14268;SDS011;7218;51.480;7.006;2022-11-15T04:09:28;4.88;;;4.30;;
14268;SDS011;7218;51.480;7.006;2022-11-15T04:11:55;7.03;;;4.63;;
14268;SDS011;7218;51.480;7.006;2022-11-15T04:14:22;5.03;;;4.20;;
14268;SDS011;7218;51.480;7.006;2022-11-15T04:16:48;4.90;;;4.00;;
14268;SDS011;7218;51.480;7.006;2022-11-15T04:19:15;5.80;;;4.18;;
14268;SDS011;7218;51.480;7.006;2022-11-15T04:22:01;4.97;;;4.35;;
14268;SDS011;7218;51.480;7.006;2022-11-15T04:24:46;4.80;;;4.30;;
14268;SDS011;7218;51.480;7.006;2022-11-15T04:27:13;4.50;;;3.55;;
14268;SDS011;7218;51.480;7.006;2022-11-15T04:29:42;7.30;;;4.03;;
14268;SDS011;7218;51.480;7.006;2022-11-15T04:32:10;5.53;;;4.03;;
14268;SDS011;7218;51.480;7.006;2022-11-15T04:34:39;5.22;;;3.95;;
14268;SDS011;7218;51.480;7.006;2022-11-15T04:37:08;4.90;;;4.15;;
14268;SDS011;7218;51.480;7.006;2022-11-15T04:39:37;4.70;;;3.90;;
14268;SDS011;7218;51.480;7.006;2022-11-15T04:42:03;4.90;;;3.67;;
14268;SDS011;7218;51.480;7.006;2022-11-15T04:44:30;4.65;;;3.90;;
14268;SDS011;7218;51.480;7.006;2022-11-15T04:46:59;3.97;;;3.63;;
14268;SDS011;7218;51.480;7.006;2022-11-15T04:49:28;4.80;;;3.78;;
14268;SDS011;7218;51.480;7.006;2022-11-15T04:51:56;4.78;;;3.90;;
14268;SDS011;7218;51.480;7.006;2022-11-15T04:54:26;4.50;;;3.85;;
14268;SDS011;7218;51.480;7.006;2022-11-15T04:56:55;4.25;;;3.55;;
14268;SDS011;7218;51.480;7.006;2022-11-15T04:59:25;6.38;;;4.10;;
14268;SDS011;7218;51.480;7.006;2022-11-15T05:01:52;4.00;;;3.67;;
14268;SDS011;7218;51.480;7.006;2022-11-15T05:04:21;4.32;;;3.60;;
14268;SDS011;7218;51.480;7.006;2022-11-15T05:06:47;5.70;;;3.65;;
14268;SDS011;7218;51.480;7.006;2022-11-15T05:09:16;4.93;;;3.75;;
14268;SDS011;7218;51.480;7.006;2022-11-15T05:11:44;4.20;;;3.80;;
14268;SDS011;7218;51.480;7.006;2022-11-15T05:14:12;4.82;;;3.60;;
14268;SDS011;7218;51.480;7.006;2022-11-15T05:16:42;4.90;;;3.40;;
14268;SDS011;7218;51.480;7.006;2022-11-15T05:19:11;5.40;;;3.58;;
14268;SDS011;7218;51.480;7.006;2022-11-15T05:21:38;3.97;;;3.42;;
14268;SDS011;7218;51.480;7.006;2022-11-15T05:24:05;4.18;;;3.80;;
14268;SDS011;7218;51.480;7.006;2022-11-15T05:26:36;5.80;;;3.78;;
14268;SDS011;7218;51.480;7.006;2022-11-15T05:29:08;4.57;;;4.07;;
14268;SDS011;7218;51.480;7.006;2022-11-15T05:31:37;4.93;;;4.18;;
14268;SDS011;7218;51.480;7.006;2022-11-15T05:34:05;4.80;;;4.22;;
14268;SDS011;7218;51.480;7.006;2022-11-15T05:36:33;5.32;;;4.80;;
14268;SDS011;7218;51.480;7.006;2022-11-15T05:39:03;5.10;;;4.38;;
14268;SDS011;7218;51.480;7.006;2022-11-15T05:41:32;5.00;;;4.45;;
14268;SDS011;7218;51.480;7.006;2022-11-15T05:44:02;5.85;;;4.63;;
14268;SDS011;7218;51.480;7.006;2022-11-15T05:46:35;6.28;;;4.85;;
14268;SDS011;7218;51.480;7.006;2022-11-15T05:49:04;6.60;;;5.13;;
14268;SDS011;7218;51.480;7.006;2022-11-15T05:51:34;6.13;;;5.38;;
14268;SDS011;7218;51.480;7.006;2022-11-15T05:54:02;7.03;;;5.35;;
14268;SDS011;7218;51.480;7.006;2022-11-15T05:56:29;7.13;;;5.47;;
14268;SDS011;7218;51.480;7.006;2022-11-15T05:58:56;7.90;;;5.47;;
14268;SDS011;7218;51.480;7.006;2022-11-15T06:01:25;7.70;;;5.75;;
14268;SDS011;7218;51.480;7.006;2022-11-15T06:03:53;6.38;;;5.78;;
14268;SDS011;7218;51.480;7.006;2022-11-15T06:06:20;6.60;;;5.97;;
14268;SDS011;7218;51.480;7.006;2022-11-15T06:08:48;6.20;;;5.60;;
14268;SDS011;7218;51.480;7.006;2022-11-15T06:11:15;7.10;;;5.43;;
14268;SDS011;7218;51.480;7.006;2022-11-15T06:13:44;6.35;;;5.57;;
14268;SDS011;7218;51.480;7.006;2022-11-15T06:16:11;6.80;;;5.45;;
14268;SDS011;7218;51.480;7.006;2022-11-15T06:18:41;6.13;;;5.50;;
14268;SDS011;7218;51.480;7.006;2022-11-15T06:21:09;5.90;;;5.40;;
14268;SDS011;7218;51.480;7.006;2022-11-15T06:23:40;5.88;;;4.95;;
14268;SDS011;7218;51.480;7.006;2022-11-15T06:26:07;6.78;;;5.35;;
14268;SDS011;7218;51.480;7.006;2022-11-15T06:28:34;6.20;;;5.35;;
14268;SDS011;7218;51.480;7.006;2022-11-15T06:31:09;6.88;;;4.75;;
14268;SDS011;7218;51.480;7.006;2022-11-15T06:33:38;6.20;;;5.38;;
14268;SDS011;7218;51.480;7.006;2022-11-15T06:36:09;5.30;;;4.80;;
14268;SDS011;7218;51.480;7.006;2022-11-15T06:38:38;5.25;;;4.75;;
14268;SDS011;7218;51.480;7.006;2022-11-15T06:41:07;5.22;;;4.63;;
14268;SDS011;7218;51.480;7.006;2022-11-15T06:43:36;5.88;;;4.43;;
14268;SDS011;7218;51.480;7.006;2022-11-15T06:46:04;5.38;;;4.88;;
14268;SDS011;7218;51.480;7.006;2022-11-15T06:48:35;6.53;;;4.80;;
14268;SDS011;7218;51.480;7.006;2022-11-15T06:51:03;6.38;;;4.55;;
14268;SDS011;7218;51.480;7.006;2022-11-15T06:53:34;4.65;;;3.97;;
14268;SDS011;7218;51.480;7.006;2022-11-15T06:56:04;4.30;;;3.90;;
14268;SDS011;7218;51.480;7.006;2022-11-15T06:58:32;4.68;;;3.95;;
14268;SDS011;7218;51.480;7.006;2022-11-15T07:01:00;3.90;;;3.42;;
14268;SDS011;7218;51.480;7.006;2022-11-15T07:03:27;5.70;;;3.72;;
14268;SDS011;7218;51.480;7.006;2022-11-15T07:05:53;4.35;;;3.55;;
14268;SDS011;7218;51.480;7.006;2022-11-15T07:08:21;3.92;;;3.45;;
14268;SDS011;7218;51.480;7.006;2022-11-15T07:10:50;3.70;;;3.40;;
14268;SDS011;7218;51.480;7.006;2022-11-15T07:13:16;3.50;;;3.20;;
14268;SDS011;7218;51.480;7.006;2022-11-15T07:15:43;3.33;;;3.05;;
14268;SDS011;7218;51.480;7.006;2022-11-15T07:18:09;5.28;;;3.00;;
14268;SDS011;7218;51.480;7.006;2022-11-15T07:20:36;4.30;;;2.85;;
14268;SDS011;7218;51.480;7.006;2022-11-15T07:23:02;2.80;;;2.60;;
14268;SDS011;7218;51.480;7.006;2022-11-15T07:25:32;4.75;;;2.80;;
14268;SDS011;7218;51.480;7.006;2022-11-15T07:28:01;4.75;;;2.85;;
14268;SDS011;7218;51.480;7.006;2022-11-15T07:30:27;2.47;;;2.22;;
14268;SDS011;7218;51.480;7.006;2022-11-15T07:32:54;2.42;;;2.20;;
14268;SDS011;7218;51.480;7.006;2022-11-15T07:35:21;3.63;;;2.22;;
14268;SDS011;7218;51.480;7.006;2022-11-15T07:37:55;3.38;;;2.40;;
14268;SDS011;7218;51.480;7.006;2022-11-15T07:40:22;2.50;;;2.30;;
14268;SDS011;7218;51.480;7.006;2022-11-15T07:42:49;2.25;;;1.80;;
14268;SDS011;7218;51.480;7.006;2022-11-15T07:45:19;3.45;;;2.13;;
14268;SDS011;7218;51.480;7.006;2022-11-15T07:47:46;2.65;;;1.95;;
14268;SDS011;7218;51.480;7.006;2022-11-15T07:50:13;2.20;;;1.90;;
14268;SDS011;7218;51.480;7.006;2022-11-15T07:52:40;3.78;;;2.22;;
14268;SDS011;7218;51.480;7.006;2022-11-15T07:55:07;2.63;;;1.80;;
14268;SDS011;7218;51.480;7.006;2022-11-15T07:57:34;3.03;;;2.20;;
14268;SDS011;7218;51.480;7.006;2022-11-15T08:00:00;3.58;;;2.13;;
14268;SDS011;7218;51.480;7.006;2022-11-15T08:02:29;3.38;;;2.10;;
14268;SDS011;7218;51.480;7.006;2022-11-15T08:04:55;2.97;;;1.90;;
14268;SDS011;7218;51.480;7.006;2022-11-15T08:07:22;2.30;;;1.90;;
14268;SDS011;7218;51.480;7.006;2022-11-15T08:09:49;2.20;;;1.85;;
14268;SDS011;7218;51.480;7.006;2022-11-15T08:12:15;3.58;;;1.80;;
14268;SDS011;7218;51.480;7.006;2022-11-15T08:14:42;1.98;;;1.75;;
14268;SDS011;7218;51.480;7.006;2022-11-15T08:17:09;2.10;;;1.70;;
14268;SDS011;7218;51.480;7.006;2022-11-15T08:19:37;3.10;;;1.90;;
14268;SDS011;7218;51.480;7.006;2022-11-15T08:22:03;3.15;;;2.13;;
14268;SDS011;7218;51.480;7.006;2022-11-15T08:24:30;2.08;;;1.60;;
14268;SDS011;7218;51.480;7.006;2022-11-15T08:26:56;2.20;;;1.60;;
14268;SDS011;7218;51.480;7.006;2022-11-15T08:29:23;2.78;;;1.88;;
14268;SDS011;7218;51.480;7.006;2022-11-15T08:31:49;3.22;;;1.90;;
14268;SDS011;7218;51.480;7.006;2022-11-15T08:34:16;3.25;;;1.90;;
14268;SDS011;7218;51.480;7.006;2022-11-15T08:36:44;3.17;;;1.92;;
14268;SDS011;7218;51.480;7.006;2022-11-15T08:39:10;3.45;;;1.95;;
14268;SDS011;7218;51.480;7.006;2022-11-15T08:41:37;3.30;;;1.92;;
14268;SDS011;7218;51.480;7.006;2022-11-15T08:44:04;2.55;;;1.80;;
14268;SDS011;7218;51.480;7.006;2022-11-15T08:46:31;3.22;;;2.00;;
14268;SDS011;7218;51.480;7.006;2022-11-15T08:48:57;2.20;;;1.77;;
14268;SDS011;7218;51.480;7.006;2022-11-15T08:51:24;3.70;;;1.90;;
14268;SDS011;7218;51.480;7.006;2022-11-15T08:53:51;1.75;;;1.60;;
14268;SDS011;7218;51.480;7.006;2022-11-15T08:56:18;2.30;;;1.88;;
14268;SDS011;7218;51.480;7.006;2022-11-15T08:58:44;2.40;;;1.98;;
14268;SDS011;7218;51.480;7.006;2022-11-15T09:01:15;3.17;;;2.28;;
14268;SDS011;7218;51.480;7.006;2022-11-15T09:03:43;2.35;;;2.15;;
14268;SDS011;7218;51.480;7.006;2022-11-15T09:06:10;2.42;;;1.88;;
14268;SDS011;7218;51.480;7.006;2022-11-15T09:08:36;3.03;;;2.17;;
14268;SDS011;7218;51.480;7.006;2022-11-15T09:11:04;2.67;;;1.77;;
14268;SDS011;7218;51.480;7.006;2022-11-15T09:13:31;1.98;;;1.77;;
14268;SDS011;7218;51.480;7.006;2022-11-15T09:15:58;2.38;;;1.73;;
14268;SDS011;7218;51.480;7.006;2022-11-15T09:18:26;2.33;;;1.90;;
14268;SDS011;7218;51.480;7.006;2022-11-15T09:20:54;2.63;;;1.85;;
14268;SDS011;7218;51.480;7.006;2022-11-15T09:23:22;1.70;;;1.60;;
14268;SDS011;7218;51.480;7.006;2022-11-15T09:25:49;2.28;;;1.50;;
14268;SDS011;7218;51.480;7.006;2022-11-15T09:28:18;2.92;;;1.70;;
14268;SDS011;7218;51.480;7.006;2022-11-15T09:30:44;1.95;;;1.52;;
14268;SDS011;7218;51.480;7.006;2022-11-15T09:33:11;4.20;;;1.88;;
14268;SDS011;7218;51.480;7.006;2022-11-15T09:35:38;2.90;;;1.75;;
14268;SDS011;7218;51.480;7.006;2022-11-15T09:38:05;2.30;;;2.10;;
14268;SDS011;7218;51.480;7.006;2022-11-15T09:40:32;3.78;;;1.88;;
14268;SDS011;7218;51.480;7.006;2022-11-15T09:43:08;2.25;;;1.50;;
14268;SDS011;7218;51.480;7.006;2022-11-15T09:45:53;3.25;;;2.95;;
14268;SDS011;7218;51.480;7.006;2022-11-15T09:48:34;3.15;;;1.70;;
14268;SDS011;7218;51.480;7.006;2022-11-15T09:51:18;2.05;;;1.73;;
14268;SDS011;7218;51.480;7.006;2022-11-15T09:53:52;2.00;;;1.40;;
14268;SDS011;7218;51.480;7.006;2022-11-15T09:56:24;2.35;;;1.48;;
14268;SDS011;7218;51.480;7.006;2022-11-15T09:58:56;4.18;;;1.50;;
14268;SDS011;7218;51.480;7.006;2022-11-15T10:01:33;3.83;;;1.58;;
14268;SDS011;7218;51.480;7.006;2022-11-15T10:04:07;2.42;;;1.50;;
14268;SDS011;7218;51.480;7.006;2022-11-15T10:06:34;3.00;;;1.70;;
14268;SDS011;7218;51.480;7.006;2022-11-15T10:09:09;1.67;;;1.42;;
14268;SDS011;7218;51.480;7.006;2022-11-15T10:11:40;1.92;;;1.40;;
14268;SDS011;7218;51.480;7.006;2022-11-15T10:14:10;2.67;;;1.23;;
14268;SDS011;7218;51.480;7.006;2022-11-15T10:16:51;2.40;;;1.50;;
14268;SDS011;7218;51.480;7.006;2022-11-15T10:19:39;2.25;;;1.50;;
14268;SDS011;7218;51.480;7.006;2022-11-15T10:22:20;3.03;;;1.70;;
14268;SDS011;7218;51.480;7.006;2022-11-15T10:24:52;4.18;;;1.50;;
14268;SDS011;7218;51.480;7.006;2022-11-15T10:27:36;1.55;;;1.30;;
14268;SDS011;7218;51.480;7.006;2022-11-15T10:30:10;2.72;;;1.30;;
14268;SDS011;7218;51.480;7.006;2022-11-15T10:32:38;2.38;;;1.60;;
14268;SDS011;7218;51.480;7.006;2022-11-15T10:35:15;2.17;;;1.40;;
14268;SDS011;7218;51.480;7.006;2022-11-15T10:37:44;2.88;;;1.50;;
14268;SDS011;7218;51.480;7.006;2022-11-15T10:40:14;1.52;;;1.30;;
14268;SDS011;7218;51.480;7.006;2022-11-15T10:42:42;1.65;;;1.33;;
14268;SDS011;7218;51.480;7.006;2022-11-15T10:45:22;2.70;;;1.40;;
14268;SDS011;7218;51.480;7.006;2022-11-15T10:47:50;4.30;;;1.67;;
14268;SDS011;7218;51.480;7.006;2022-11-15T10:50:27;2.15;;;1.20;;
14268;SDS011;7218;51.480;7.006;2022-11-15T10:52:55;2.65;;;1.42;;
14268;SDS011;7218;51.480;7.006;2022-11-15T10:55:24;1.98;;;1.20;;
14268;SDS011;7218;51.480;7.006;2022-11-15T10:57:53;1.50;;;1.35;;
14268;SDS011;7218;51.480;7.006;2022-11-15T11:00:31;2.20;;;1.10;;
14268;SDS011;7218;51.480;7.006;2022-11-15T11:03:01;2.83;;;1.50;;
14268;SDS011;7218;51.480;7.006;2022-11-15T11:05:30;7.03;;;1.67;;
14268;SDS011;7218;51.480;7.006;2022-11-15T11:07:59;3.30;;;1.60;;
14268;SDS011;7218;51.480;7.006;2022-11-15T11:10:27;5.40;;;1.60;;
14268;SDS011;7218;51.480;7.006;2022-11-15T11:12:54;2.92;;;1.30;;
14268;SDS011;7218;51.480;7.006;2022-11-15T11:15:22;1.85;;;1.30;;
14268;SDS011;7218;51.480;7.006;2022-11-15T11:18:01;3.00;;;1.73;;
14268;SDS011;7218;51.480;7.006;2022-11-15T11:20:36;3.75;;;1.52;;
14268;SDS011;7218;51.480;7.006;2022-11-15T11:23:21;3.28;;;1.48;;
14268;SDS011;7218;51.480;7.006;2022-11-15T11:26:06;2.70;;;1.20;;
14268;SDS011;7218;51.480;7.006;2022-11-15T11:28:46;2.30;;;1.30;;
14268;SDS011;7218;51.480;7.006;2022-11-15T11:31:21;2.58;;;1.40;;
14268;SDS011;7218;51.480;7.006;2022-11-15T11:33:59;3.40;;;1.67;;
14268;SDS011;7218;51.480;7.006;2022-11-15T11:36:36;3.85;;;1.23;;
14268;SDS011;7218;51.480;7.006;2022-11-15T11:39:11;4.00;;;1.50;;
14268;SDS011;7218;51.480;7.006;2022-11-15T11:41:49;1.33;;;1.10;;
14268;SDS011;7218;51.480;7.006;2022-11-15T11:44:38;2.47;;;1.40;;
14268;SDS011;7218;51.480;7.006;2022-11-15T11:47:14;3.05;;;1.33;;
14268;SDS011;7218;51.480;7.006;2022-11-15T11:49:49;2.72;;;1.25;;
14268;SDS011;7218;51.480;7.006;2022-11-15T11:52:18;2.00;;;1.20;;
14268;SDS011;7218;51.480;7.006;2022-11-15T11:54:53;4.30;;;1.33;;
14268;SDS011;7218;51.480;7.006;2022-11-15T11:57:29;2.45;;;1.30;;
14268;SDS011;7218;51.480;7.006;2022-11-15T12:00:02;3.72;;;1.40;;
14268;SDS011;7218;51.480;7.006;2022-11-15T12:02:32;1.90;;;1.35;;
14268;SDS011;7218;51.480;7.006;2022-11-15T12:05:07;1.55;;;1.20;;
14268;SDS011;7218;51.480;7.006;2022-11-15T12:07:39;2.00;;;1.13;;
14268;SDS011;7218;51.480;7.006;2022-11-15T12:10:12;1.88;;;1.13;;
14268;SDS011;7218;51.480;7.006;2022-11-15T12:12:47;1.77;;;1.20;;
14268;SDS011;7218;51.480;7.006;2022-11-15T12:15:20;2.53;;;1.17;;
14268;SDS011;7218;51.480;7.006;2022-11-15T12:17:49;4.40;;;1.20;;
14268;SDS011;7218;51.480;7.006;2022-11-15T12:20:19;3.38;;;1.10;;
14268;SDS011;7218;51.480;7.006;2022-11-15T12:22:51;3.05;;;1.05;;
14268;SDS011;7218;51.480;7.006;2022-11-15T12:25:22;1.13;;;1.00;;
14268;SDS011;7218;51.480;7.006;2022-11-15T12:27:54;2.00;;;1.30;;
14268;SDS011;7218;51.480;7.006;2022-11-15T12:30:24;5.18;;;1.00;;
14268;SDS011;7218;51.480;7.006;2022-11-15T12:33:09;1.83;;;1.10;;
14268;SDS011;7218;51.480;7.006;2022-11-15T12:35:59;4.85;;;1.30;;
14268;SDS011;7218;51.480;7.006;2022-11-15T12:41:18;2.40;;;1.13;;
14268;SDS011;7218;51.480;7.006;2022-11-15T12:43:45;2.10;;;1.30;;
14268;SDS011;7218;51.480;7.006;2022-11-15T12:46:19;1.92;;;1.10;;
14268;SDS011;7218;51.480;7.006;2022-11-15T12:48:52;1.60;;;1.05;;
14268;SDS011;7218;51.480;7.006;2022-11-15T12:51:22;4.80;;;1.30;;
14268;SDS011;7218;51.480;7.006;2022-11-15T13:03:22;2.90;;;1.17;;
14268;SDS011;7218;51.480;7.006;2022-11-15T13:09:03;3.47;;;1.10;;
14268;SDS011;7218;51.480;7.006;2022-11-15T13:11:42;2.75;;;1.00;;
14268;SDS011;7218;51.480;7.006;2022-11-15T13:17:25;3.58;;;1.38;;
14268;SDS011;7218;51.480;7.006;2022-11-15T13:20:00;1.70;;;1.15;;
14268;SDS011;7218;51.480;7.006;2022-11-15T13:22:48;2.35;;;0.90;;
14268;SDS011;7218;51.480;7.006;2022-11-15T13:25:19;3.00;;;1.20;;
14268;SDS011;7218;51.480;7.006;2022-11-15T13:27:53;2.85;;;1.20;;
14268;SDS011;7218;51.480;7.006;2022-11-15T13:30:22;5.22;;;1.20;;
14268;SDS011;7218;51.480;7.006;2022-11-15T13:32:51;2.47;;;1.30;;
14268;SDS011;7218;51.480;7.006;2022-11-15T13:35:19;3.75;;;1.30;;
14268;SDS011;7218;51.480;7.006;2022-11-15T13:37:48;2.70;;;1.17;;
14268;SDS011;7218;51.480;7.006;2022-11-15T13:40:18;2.05;;;1.08;;
14268;SDS011;7218;51.480;7.006;2022-11-15T13:42:49;3.70;;;1.20;;
14268;SDS011;7218;51.480;7.006;2022-11-15T13:45:17;2.30;;;1.10;;
14268;SDS011;7218;51.480;7.006;2022-11-15T13:47:44;2.80;;;1.08;;
14268;SDS011;7218;51.480;7.006;2022-11-15T13:50:17;3.63;;;1.00;;
14268;SDS011;7218;51.480;7.006;2022-11-15T13:52:46;4.22;;;1.27;;
14268;SDS011;7218;51.480;7.006;2022-11-15T13:55:15;1.88;;;1.02;;
14268;SDS011;7218;51.480;7.006;2022-11-15T13:57:47;2.92;;;1.48;;
14268;SDS011;7218;51.480;7.006;2022-11-15T14:00:27;1.67;;;1.20;;
14268;SDS011;7218;51.480;7.006;2022-11-15T14:03:04;2.42;;;1.20;;
14268;SDS011;7218;51.480;7.006;2022-11-15T14:05:33;3.97;;;1.33;;
14268;SDS011;7218;51.480;7.006;2022-11-15T14:08:03;3.17;;;1.30;;
14268;SDS011;7218;51.480;7.006;2022-11-15T14:10:47;1.85;;;1.20;;
14268;SDS011;7218;51.480;7.006;2022-11-15T14:13:27;1.23;;;0.90;;
14268;SDS011;7218;51.480;7.006;2022-11-15T14:15:57;3.78;;;1.30;;
14268;SDS011;7218;51.480;7.006;2022-11-15T14:18:40;2.72;;;1.30;;
14268;SDS011;7218;51.480;7.006;2022-11-15T14:21:09;3.25;;;1.10;;
14268;SDS011;7218;51.480;7.006;2022-11-15T14:23:36;3.63;;;1.70;;
14268;SDS011;7218;51.480;7.006;2022-11-15T14:26:02;3.38;;;2.05;;
14268;SDS011;7218;51.480;7.006;2022-11-15T14:28:31;1.75;;;1.50;;
14268;SDS011;7218;51.480;7.006;2022-11-15T14:31:01;2.80;;;1.05;;
14268;SDS011;7218;51.480;7.006;2022-11-15T14:33:33;2.75;;;1.95;;
14268;SDS011;7218;51.480;7.006;2022-11-15T14:36:02;2.55;;;1.30;;
14268;SDS011;7218;51.480;7.006;2022-11-15T14:38:30;5.13;;;1.40;;
14268;SDS011;7218;51.480;7.006;2022-11-15T14:40:57;3.13;;;1.35;;
14268;SDS011;7218;51.480;7.006;2022-11-15T14:43:23;2.83;;;1.70;;
14268;SDS011;7218;51.480;7.006;2022-11-15T14:45:51;4.88;;;1.80;;
14268;SDS011;7218;51.480;7.006;2022-11-15T14:48:18;4.75;;;1.83;;
14268;SDS011;7218;51.480;7.006;2022-11-15T14:50:44;2.08;;;1.48;;
14268;SDS011;7218;51.480;7.006;2022-11-15T14:53:11;6.20;;;4.20;;
14268;SDS011;7218;51.480;7.006;2022-11-15T14:55:39;5.32;;;2.78;;
14268;SDS011;7218;51.480;7.006;2022-11-15T14:58:06;3.60;;;2.10;;
14268;SDS011;7218;51.480;7.006;2022-11-15T15:00:34;3.33;;;1.80;;
14268;SDS011;7218;51.480;7.006;2022-11-15T15:03:03;3.90;;;2.20;;
14268;SDS011;7218;51.480;7.006;2022-11-15T15:05:31;2.38;;;1.60;;
14268;SDS011;7218;51.480;7.006;2022-11-15T15:07:59;5.15;;;1.90;;
14268;SDS011;7218;51.480;7.006;2022-11-15T15:10:27;2.55;;;1.98;;
14268;SDS011;7218;51.480;7.006;2022-11-15T15:12:57;2.45;;;1.73;;
14268;SDS011;7218;51.480;7.006;2022-11-15T15:15:24;4.45;;;1.80;;
14268;SDS011;7218;51.480;7.006;2022-11-15T15:17:53;3.65;;;1.65;;
14268;SDS011;7218;51.480;7.006;2022-11-15T15:20:20;2.05;;;1.63;;
14268;SDS011;7218;51.480;7.006;2022-11-15T15:22:47;4.35;;;1.90;;
14268;SDS011;7218;51.480;7.006;2022-11-15T15:25:19;2.33;;;2.08;;
14268;SDS011;7218;51.480;7.006;2022-11-15T15:27:48;5.50;;;2.22;;
14268;SDS011;7218;51.480;7.006;2022-11-15T15:30:15;4.63;;;2.47;;
14268;SDS011;7218;51.480;7.006;2022-11-15T15:32:41;3.10;;;2.20;;
14268;SDS011;7218;51.480;7.006;2022-11-15T15:35:10;3.70;;;2.20;;
14268;SDS011;7218;51.480;7.006;2022-11-15T15:37:40;3.30;;;1.92;;